createdAt,value
2019-02-23T00:02:33.979Z,-4.40
2019-02-23T00:05:15.242Z,-4.40
2019-02-23T00:07:55.907Z,-4.40
2019-02-23T00:10:36.632Z,-4.40
2019-02-23T00:13:19.507Z,-4.50
2019-02-23T00:16:00.390Z,-4.50
2019-02-23T00:18:41.782Z,-4.50
2019-02-23T00:21:23.412Z,-4.60
2019-02-23T00:24:05.476Z,-4.60
2019-02-23T00:26:46.761Z,-4.70
2019-02-23T00:29:28.232Z,-4.70
2019-02-23T00:32:09.592Z,-4.70
2019-02-23T00:34:51.245Z,-4.70
2019-02-23T00:40:21.988Z,-4.70
2019-02-23T00:43:03.148Z,-4.70
2019-02-23T00:45:44.800Z,-4.70
2019-02-23T00:48:25.762Z,-4.80
2019-02-23T00:51:07.394Z,-4.80
2019-02-23T00:53:48.503Z,-4.80
2019-02-23T00:56:29.874Z,-4.80
2019-02-23T00:59:13.622Z,-4.90
2019-02-23T01:01:54.448Z,-4.90
2019-02-23T01:07:40.178Z,-5.00
2019-02-23T01:10:26.194Z,-5.00
2019-02-23T01:15:52.048Z,-5.10
2019-02-23T01:18:32.584Z,-5.10
2019-02-23T01:21:13.268Z,-5.10
2019-02-23T01:26:44.244Z,-5.20
2019-02-23T01:29:25.089Z,-5.20
2019-02-23T01:32:05.471Z,-5.20
2019-02-23T01:34:46.694Z,-5.30
2019-02-23T01:37:27.662Z,-5.30
2019-02-23T01:40:08.567Z,-5.20
2019-02-23T01:42:53.052Z,-5.20
2019-02-23T01:45:42.149Z,-5.20
2019-02-23T01:48:17.220Z,-5.20
2019-02-23T01:50:58.285Z,-5.10
2019-02-23T01:53:39.250Z,-5.10
2019-02-23T01:56:19.902Z,-5.00
2019-02-23T01:59:04.152Z,-4.90
2019-02-23T02:01:45.041Z,-4.90
2019-02-23T02:04:25.816Z,-4.80
2019-02-23T02:07:06.905Z,-4.80
2019-02-23T02:09:49.430Z,-4.70
2019-02-23T02:12:29.955Z,-4.70
2019-02-23T02:15:10.741Z,-4.60
2019-02-23T02:20:35.763Z,-4.60
2019-02-23T02:23:16.845Z,-4.60
2019-02-23T02:25:57.333Z,-4.50
2019-02-23T02:28:38.718Z,-4.50
2019-02-23T02:31:19.620Z,-4.50
2019-02-23T02:42:26.843Z,-4.40
2019-02-23T02:47:52.574Z,-4.40
2019-02-23T02:50:33.605Z,-4.40
2019-02-23T02:53:14.356Z,-4.30
2019-02-23T02:55:55.131Z,-4.30
2019-02-23T02:58:36.509Z,-4.30
2019-02-23T03:04:09.097Z,-4.30
2019-02-23T03:06:50.474Z,-4.30
2019-02-23T03:12:42.250Z,-4.30
2019-02-23T03:15:26.686Z,-4.20
2019-02-23T03:18:07.498Z,-4.20
2019-02-23T03:20:50.174Z,-4.30
2019-02-23T03:23:31.301Z,-4.20
2019-02-23T03:26:12.833Z,-4.20
2019-02-23T03:28:53.952Z,-4.20
2019-02-23T03:31:35.461Z,-4.20
2019-02-23T03:34:16.944Z,-4.20
2019-02-23T03:36:57.439Z,-4.20
2019-02-23T03:42:23.647Z,-4.20
2019-02-23T03:45:04.871Z,-4.20
2019-02-23T03:47:45.497Z,-4.20
2019-02-23T03:50:32.901Z,-4.20
2019-02-23T03:53:13.550Z,-4.30
2019-02-23T03:58:38.805Z,-4.30
2019-02-23T04:01:19.929Z,-4.30
2019-02-23T04:04:01.126Z,-4.30
2019-02-23T04:06:41.708Z,-4.30
2019-02-23T04:12:08.574Z,-4.30
2019-02-23T04:14:49.341Z,-4.20
2019-02-23T04:20:14.700Z,-4.20
2019-02-23T04:22:56.256Z,-4.20
2019-02-23T04:25:37.421Z,-4.20
2019-02-23T04:28:17.868Z,-4.20
2019-02-23T04:30:59.988Z,-4.30
2019-02-23T04:33:40.957Z,-4.20
2019-02-23T04:36:22.373Z,-4.20
2019-02-23T04:39:04.528Z,-4.30
2019-02-23T04:41:46.942Z,-4.30
2019-02-23T04:44:27.527Z,-4.30
2019-02-23T04:47:08.137Z,-4.30
2019-02-23T04:53:08.177Z,-4.40
2019-02-23T04:55:48.763Z,-4.40
2019-02-23T04:58:29.925Z,-4.40
2019-02-23T05:01:10.367Z,-4.40
2019-02-23T05:06:37.628Z,-4.50
2019-02-23T05:12:10.098Z,-4.50
2019-02-23T05:14:50.893Z,-4.50
2019-02-23T05:17:32.145Z,-4.50
2019-02-23T05:23:08.952Z,-4.50
2019-02-23T05:25:49.808Z,-4.60
2019-02-23T05:31:14.778Z,-4.60
2019-02-23T05:33:55.822Z,-4.60
2019-02-23T05:36:37.223Z,-4.60
2019-02-23T05:42:05.099Z,-4.60
2019-02-23T05:47:31.111Z,-4.70
2019-02-23T05:50:12.450Z,-4.70
2019-02-23T05:52:53.385Z,-4.80
2019-02-23T05:55:34.434Z,-4.80
2019-02-23T05:58:16.700Z,-4.80
2019-02-23T06:03:42.303Z,-4.90
2019-02-23T06:06:23.968Z,-4.90
2019-02-23T06:12:12.239Z,-5.00
2019-02-23T06:17:38.672Z,-5.00
2019-02-23T06:20:20.053Z,-5.00
2019-02-23T06:23:02.455Z,-5.00
2019-02-23T06:25:43.132Z,-5.00
2019-02-23T06:28:23.852Z,-5.00
2019-02-23T06:31:04.435Z,-5.00
2019-02-23T06:36:30.662Z,-4.90
2019-02-23T06:39:12.208Z,-4.90
2019-02-23T06:41:53.371Z,-4.90
2019-02-23T06:44:34.028Z,-4.80
2019-02-23T06:47:15.113Z,-4.80
2019-02-23T06:52:45.403Z,-4.70
2019-02-23T06:58:15.370Z,-4.50
2019-02-23T07:00:56.099Z,-4.40
2019-02-23T07:03:36.831Z,-4.30
2019-02-23T07:06:18.244Z,-4.20
2019-02-23T07:09:00.998Z,-4.10
2019-02-23T07:11:41.738Z,-4.00
2019-02-23T07:14:24.393Z,-3.80
2019-02-23T07:17:05.452Z,-3.70
2019-02-23T07:19:46.838Z,-3.70
2019-02-23T07:25:12.723Z,-3.60
2019-02-23T07:27:54.608Z,-3.60
2019-02-23T07:30:35.050Z,-3.50
2019-02-23T07:33:20.141Z,-3.40
2019-02-23T07:35:59.070Z,-3.40
2019-02-23T07:38:40.875Z,-3.30
2019-02-23T07:41:22.407Z,-3.30
2019-02-23T07:44:03.522Z,-3.20
2019-02-23T07:46:44.771Z,-3.20
2019-02-23T07:49:25.981Z,-3.10
2019-02-23T07:52:07.711Z,-3.00
2019-02-23T07:54:48.523Z,-2.80
2019-02-23T08:00:22.824Z,-2.70
2019-02-23T08:03:04.238Z,-2.60
2019-02-23T08:05:45.150Z,-2.40
2019-02-23T08:08:26.235Z,-2.40
2019-02-23T08:11:07.582Z,-2.30
2019-02-23T08:13:48.636Z,-2.20
2019-02-23T08:16:30.186Z,-2.10
2019-02-23T08:19:11.940Z,-2.00
2019-02-23T08:21:53.251Z,-2.00
2019-02-23T08:24:34.620Z,-1.80
2019-02-23T08:33:31.987Z,-1.30
2019-02-23T08:36:13.554Z,-1.30
2019-02-23T08:38:54.061Z,-1.20
2019-02-23T08:41:36.474Z,-1.10
2019-02-23T08:44:17.882Z,-1.00
2019-02-23T08:46:58.782Z,-1.00
2019-02-23T08:52:27.412Z,-0.80
2019-02-23T08:55:08.650Z,-0.70
2019-02-23T08:57:50.527Z,-0.50
2019-02-23T09:00:31.686Z,-0.30
2019-02-23T09:03:12.382Z,-0.20
2019-02-23T09:05:53.713Z,-0.20
2019-02-23T09:08:35.004Z,-0.10
2019-02-23T09:11:15.996Z,-0.10
2019-02-23T09:13:57.257Z,-0.10
2019-02-23T09:16:41.500Z,-0.10
2019-02-23T09:19:22.917Z,0.00
2019-02-23T09:24:48.990Z,0.20
2019-02-23T09:27:32.275Z,0.30
2019-02-23T09:30:14.078Z,0.40
2019-02-23T09:32:54.999Z,0.40
2019-02-23T09:35:36.456Z,0.50
2019-02-23T09:38:17.480Z,0.60
2019-02-23T09:40:59.407Z,0.70
2019-02-23T09:43:41.926Z,0.80
2019-02-23T09:46:26.637Z,0.90
2019-02-23T09:49:07.640Z,1.00
2019-02-23T09:51:48.870Z,1.10
2019-02-23T09:54:30.735Z,1.20
2019-02-23T09:57:10.888Z,1.30
2019-02-23T09:59:55.219Z,1.30
2019-02-23T10:02:36.528Z,1.40
2019-02-23T10:11:18.470Z,1.70
2019-02-23T10:14:01.112Z,1.90
2019-02-23T10:16:42.196Z,1.90
2019-02-23T10:19:24.120Z,2.10
2019-02-23T10:22:05.365Z,2.20
2019-02-23T10:30:23.940Z,2.80
2019-02-23T10:33:04.688Z,2.80
2019-02-23T10:35:45.948Z,2.90
2019-02-23T10:38:27.223Z,2.90
2019-02-23T10:41:08.613Z,2.90
2019-02-23T10:43:50.257Z,2.90
2019-02-23T10:46:31.999Z,2.90
2019-02-23T10:52:06.229Z,2.90
2019-02-23T10:54:47.282Z,2.90
2019-02-23T10:57:28.575Z,3.00
2019-02-23T11:00:14.911Z,3.00
2019-02-23T11:02:55.954Z,3.10
2019-02-23T11:05:37.275Z,3.20
2019-02-23T11:08:18.414Z,3.40
2019-02-23T11:10:59.569Z,3.50
2019-02-23T11:16:27.047Z,3.50
2019-02-23T11:19:08.643Z,3.50
2019-02-23T11:21:49.965Z,3.50
2019-02-23T11:24:31.336Z,3.60
2019-02-23T11:27:13.760Z,3.70
2019-02-23T11:29:55.095Z,3.60
2019-02-23T11:32:36.079Z,3.60
2019-02-23T11:35:17.576Z,3.70
2019-02-23T11:37:58.643Z,3.80
2019-02-23T11:40:39.180Z,3.90
2019-02-23T11:43:20.341Z,4.00
2019-02-23T11:46:01.214Z,4.00
2019-02-23T11:48:45.117Z,4.10
2019-02-23T11:51:26.585Z,4.20
2019-02-23T11:54:26.981Z,4.30
2019-02-23T11:57:07.893Z,4.30
2019-02-23T11:59:49.021Z,4.40
2019-02-23T12:02:30.423Z,4.40
2019-02-23T12:05:11.900Z,4.40
2019-02-23T12:07:52.951Z,4.40
2019-02-23T12:10:33.907Z,4.50
2019-02-23T12:13:15.185Z,4.40
2019-02-23T12:15:56.475Z,4.50
2019-02-23T12:18:38.275Z,4.60
2019-02-23T12:24:06.513Z,5.00
2019-02-23T12:26:47.469Z,5.20
2019-02-23T12:29:28.371Z,5.30
2019-02-23T12:32:29.171Z,5.50
2019-02-23T12:35:10.628Z,5.60
2019-02-23T12:40:36.330Z,5.70
2019-02-23T12:43:21.492Z,5.90
2019-02-23T12:46:03.255Z,5.80
2019-02-23T12:52:05.099Z,5.80
2019-02-23T12:57:30.212Z,5.60
2019-02-23T13:00:11.916Z,5.30
2019-02-23T13:02:53.462Z,5.00
2019-02-23T13:05:39.093Z,4.80
2019-02-23T13:08:24.504Z,4.70
2019-02-23T13:11:06.242Z,4.60
2019-02-23T13:13:49.736Z,4.50
2019-02-23T13:19:13.433Z,4.30
2019-02-23T13:21:57.958Z,4.20
2019-02-23T13:24:39.272Z,4.00
2019-02-23T13:27:19.628Z,4.00
2019-02-23T13:30:00.914Z,3.90
2019-02-23T13:32:42.836Z,3.80
2019-02-23T13:35:23.800Z,3.70
2019-02-23T13:38:05.235Z,3.60
2019-02-23T13:40:49.137Z,3.60
2019-02-23T13:43:29.965Z,3.60
2019-02-23T13:46:11.860Z,3.70
2019-02-23T13:51:38.789Z,3.70
2019-02-23T13:54:19.450Z,3.80
2019-02-23T13:57:00.655Z,3.80
2019-02-23T14:02:31.235Z,3.80
2019-02-23T14:05:12.166Z,3.70
2019-02-23T14:07:53.421Z,3.70
2019-02-23T14:10:34.424Z,3.80
2019-02-23T14:13:15.659Z,3.80
2019-02-23T14:15:57.386Z,3.80
2019-02-23T14:18:38.686Z,3.80
2019-02-23T14:21:18.360Z,3.80
2019-02-23T14:24:00.042Z,3.80
2019-02-23T14:29:27.139Z,3.80
2019-02-23T14:32:08.970Z,3.80
2019-02-23T14:34:50.647Z,3.70
2019-02-23T14:37:32.601Z,3.70
2019-02-23T14:40:14.223Z,3.70
2019-02-23T14:45:34.383Z,3.60
2019-02-23T14:48:17.228Z,3.60
2019-02-23T14:50:58.575Z,3.50
2019-02-23T14:53:39.673Z,3.40
2019-02-23T14:56:20.347Z,3.40
2019-02-23T14:59:01.768Z,3.40
2019-02-23T15:01:43.487Z,3.30
2019-02-23T15:04:25.923Z,3.30
2019-02-23T15:07:12.289Z,3.20
2019-02-23T15:16:31.501Z,3.10
2019-02-23T15:19:13.029Z,3.00
2019-02-23T15:21:54.172Z,3.00
2019-02-23T15:24:34.825Z,2.90
2019-02-23T15:29:59.861Z,2.70
2019-02-23T15:32:40.731Z,2.60
2019-02-23T15:38:08.106Z,2.40
2019-02-23T15:40:49.151Z,2.30
2019-02-23T15:43:29.840Z,2.20
2019-02-23T15:46:10.539Z,2.10
2019-02-23T15:48:51.362Z,2.00
2019-02-23T15:51:34.598Z,1.90
2019-02-23T15:54:15.526Z,1.80
2019-02-23T15:57:00.102Z,1.80
2019-02-23T15:59:40.729Z,1.70
2019-02-23T16:02:21.977Z,1.60
2019-02-23T16:05:03.169Z,1.50
2019-02-23T16:07:44.127Z,1.40
2019-02-23T16:10:25.559Z,1.30
2019-02-23T16:13:06.412Z,1.30
2019-02-23T16:15:47.473Z,1.20
2019-02-23T16:18:29.246Z,1.10
2019-02-23T16:21:10.235Z,1.00
2019-02-23T16:23:53.449Z,1.00
2019-02-23T16:26:35.336Z,0.90
2019-02-23T16:29:16.939Z,0.80
2019-02-23T16:31:58.276Z,0.80
2019-02-23T16:34:41.692Z,0.70
2019-02-23T16:37:24.486Z,0.60
2019-02-23T16:40:07.375Z,0.50
2019-02-23T16:42:49.073Z,0.40
2019-02-23T16:45:30.835Z,0.30
2019-02-23T16:48:12.935Z,0.30
2019-02-23T16:50:54.577Z,0.10
2019-02-23T16:53:35.869Z,0.00
2019-02-23T16:56:17.466Z,-0.10
2019-02-23T16:58:58.919Z,-0.20
2019-02-23T17:01:40.198Z,-0.20
2019-02-23T17:04:21.476Z,-0.20
2019-02-23T17:07:03.523Z,-0.40
2019-02-23T17:09:44.572Z,-0.40
2019-02-23T17:12:26.414Z,-0.50
2019-02-23T17:15:10.594Z,-0.60
2019-02-23T17:17:50.712Z,-0.70
2019-02-23T17:20:31.059Z,-0.80
2019-02-23T17:23:14.353Z,-1.00
2019-02-23T17:31:25.481Z,-1.30
2019-02-23T17:34:06.249Z,-1.30
2019-02-23T17:42:50.478Z,-1.30
2019-02-23T17:45:31.686Z,-1.30
2019-02-23T17:48:13.047Z,-1.30
2019-02-23T17:56:46.289Z,-1.40
2019-02-23T17:59:27.880Z,-1.40
2019-02-23T18:02:09.820Z,-1.40
2019-02-23T18:07:41.627Z,-1.50
2019-02-23T18:13:12.062Z,-1.60
2019-02-23T18:15:59.387Z,-1.70
2019-02-23T18:18:41.469Z,-1.70
2019-02-23T18:24:13.065Z,-1.90
2019-02-23T18:30:10.878Z,-1.90
2019-02-23T18:32:48.957Z,-1.90
2019-02-23T18:35:29.904Z,-1.90
2019-02-23T18:38:10.791Z,-1.90
2019-02-23T18:40:51.782Z,-2.00
2019-02-23T18:46:17.255Z,-2.00
2019-02-23T18:48:57.981Z,-2.00
2019-02-23T18:51:38.555Z,-2.00
2019-02-23T18:54:19.017Z,-2.00
2019-02-23T18:57:01.172Z,-2.00
2019-02-23T18:59:42.557Z,-2.00
2019-02-23T19:02:23.389Z,-2.10
2019-02-23T19:05:04.284Z,-2.00
2019-02-23T19:07:46.333Z,-2.00
2019-02-23T19:10:27.442Z,-2.00
2019-02-23T19:13:08.797Z,-2.00
2019-02-23T19:15:51.047Z,-2.00
2019-02-23T19:18:31.878Z,-2.00
2019-02-23T19:21:12.912Z,-2.00
2019-02-23T19:23:52.939Z,-2.10
2019-02-23T19:26:38.213Z,-2.10
2019-02-23T19:29:16.639Z,-2.10
2019-02-23T19:31:57.860Z,-2.10
2019-02-23T19:34:39.230Z,-2.20
2019-02-23T19:37:20.297Z,-2.20
2019-02-23T19:40:01.576Z,-2.30
2019-02-23T19:42:44.275Z,-2.30
2019-02-23T19:45:25.597Z,-2.30
2019-02-23T19:48:07.075Z,-2.30
2019-02-23T19:50:48.802Z,-2.30
2019-02-23T19:53:29.924Z,-2.40
2019-02-23T19:56:11.289Z,-2.40
2019-02-23T19:58:53.489Z,-2.40
2019-02-23T20:01:34.945Z,-2.40
2019-02-23T20:07:00.210Z,-2.40
2019-02-23T20:09:45.987Z,-2.50
2019-02-23T20:12:28.212Z,-2.50
2019-02-23T20:15:09.277Z,-2.50
2019-02-23T20:17:53.891Z,-2.60
2019-02-23T20:20:36.214Z,-2.60
2019-02-23T20:23:17.578Z,-2.60
2019-02-23T20:28:44.331Z,-2.70
2019-02-23T20:34:12.816Z,-2.70
2019-02-23T20:36:53.775Z,-2.70
2019-02-23T20:39:36.998Z,-2.70
2019-02-23T20:42:18.941Z,-2.80
2019-02-23T20:45:00.891Z,-2.80
2019-02-23T20:47:42.097Z,-2.80
2019-02-23T20:50:26.688Z,-2.90
2019-02-23T20:53:11.003Z,-2.90
2019-02-23T20:55:54.869Z,-2.90
2019-02-23T20:58:36.040Z,-3.00
2019-02-23T21:01:20.668Z,-3.00
2019-02-23T21:04:03.529Z,-3.00
2019-02-23T21:06:44.620Z,-3.00
2019-02-23T21:09:26.464Z,-3.00
2019-02-23T21:12:08.069Z,-2.90
2019-02-23T21:20:34.707Z,-2.80
2019-02-23T21:23:15.675Z,-2.80
2019-02-23T21:31:47.133Z,-2.80
2019-02-23T21:37:14.679Z,-2.80
2019-02-23T21:40:05.350Z,-2.80
2019-02-23T21:51:47.787Z,-2.70
2019-02-23T21:59:58.119Z,-2.70
2019-02-23T22:02:38.871Z,-2.70
2019-02-23T22:05:23.371Z,-2.80
2019-02-23T22:08:04.871Z,-2.80
2019-02-23T22:10:46.471Z,-2.90
2019-02-23T22:13:27.957Z,-2.90
2019-02-23T22:16:08.711Z,-2.90
2019-02-23T22:18:49.627Z,-3.00
2019-02-23T22:21:30.958Z,-3.00
2019-02-23T22:27:00.809Z,-2.90
2019-02-23T22:29:43.376Z,-2.90
2019-02-23T22:32:24.869Z,-2.90
2019-02-23T22:35:05.986Z,-2.90
2019-02-23T22:37:48.027Z,-2.90
2019-02-23T22:43:14.308Z,-3.00
2019-02-23T22:45:56.076Z,-3.00
2019-02-23T22:48:38.113Z,-3.00
2019-02-23T22:54:03.697Z,-3.10
2019-02-23T22:56:44.695Z,-3.10
2019-02-23T22:59:25.977Z,-3.10
2019-02-23T23:02:08.860Z,-3.20
2019-02-23T23:04:50.285Z,-3.20
2019-02-23T23:10:21.343Z,-3.20
2019-02-23T23:15:52.589Z,-3.30
2019-02-23T23:18:34.255Z,-3.30
2019-02-23T23:24:01.794Z,-3.40
2019-02-23T23:26:43.352Z,-3.40
2019-02-23T23:29:26.354Z,-3.50
2019-02-23T23:32:08.365Z,-3.50
2019-02-23T23:34:50.702Z,-3.50
2019-02-23T23:37:31.623Z,-3.50
2019-02-23T23:40:12.974Z,-3.60
2019-02-23T23:42:58.215Z,-3.60
2019-02-23T23:45:36.585Z,-3.60
2019-02-23T23:48:17.737Z,-3.60
2019-02-23T23:51:05.216Z,-3.70
2019-02-23T23:53:45.784Z,-3.70
2019-02-23T23:56:26.835Z,-3.70
2019-02-23T23:59:07.930Z,-3.70
